In Rescue
 
Open Full Screen Window  High Contrast Mode
Wind Gusting 22 knots
14
February 25, 2021 5:45 PM EST
Weather Information
Wind Direction
  280 °
Wind Speed
  14 kt (16 mph)
Wind Gust
  22 kt (25 mph)
Altimeter
30.20 in
Visibility
10 SM
Temperature
00° C
32° F
Dewpoint
-07° C
19° F
Humidity
60%
1hr Rain Fall
00.00 in.
24hr Rain Fall
00.00 in.
Sky Condition
Overcast @ 4,900 ft
Broken @ 4,600 ft
Scattered @ 3,800 ft
VFR

METAR KY31 252245Z AUTO 28014G22KT 10SM SCT038 BKN046 OVC049 00/M07 A3020 RMK AO2 T00001071

FAA Disclaimer: The data displayed is for advisory purposes only and is not to be used for flight planning or operations.